createdAt,value
2018-03-20T00:00:41.360Z,17.23
2018-03-20T00:01:41.169Z,17.19
2018-03-20T00:02:41.174Z,17.19
2018-03-20T00:03:41.205Z,17.21
2018-03-20T00:04:41.178Z,17.18
2018-03-20T00:05:41.195Z,17.16
2018-03-20T00:06:41.177Z,17.2
2018-03-20T00:07:41.181Z,17.18
2018-03-20T00:08:41.137Z,17.16
2018-03-20T00:09:41.188Z,17.18
2018-03-20T00:10:41.177Z,17.16
2018-03-20T00:11:41.157Z,17.16
2018-03-20T00:12:41.147Z,17.19
2018-03-20T00:13:41.146Z,17.16
2018-03-20T00:14:41.165Z,17.15
2018-03-20T00:15:41.176Z,17.16
2018-03-20T00:16:41.192Z,17.17
2018-03-20T00:17:41.172Z,17.14
2018-03-20T00:18:41.172Z,17.16
2018-03-20T00:19:41.186Z,17.14
2018-03-20T00:20:41.151Z,17.15
2018-03-20T00:21:41.226Z,17.16
2018-03-20T00:22:41.170Z,17.14
2018-03-20T00:23:41.208Z,17.15
2018-03-20T00:24:41.176Z,17.15
2018-03-20T00:25:41.178Z,17.15
2018-03-20T00:26:41.231Z,17.14
2018-03-20T00:27:41.165Z,17.14
2018-03-20T00:28:41.177Z,17.11
2018-03-20T00:29:41.223Z,17.11
2018-03-20T00:30:41.255Z,17.14
2018-03-20T00:31:41.201Z,17.1
2018-03-20T00:32:41.178Z,17.09
2018-03-20T00:33:41.159Z,17.14
2018-03-20T00:34:41.169Z,17.1
2018-03-20T00:35:41.176Z,17.08
2018-03-20T00:36:41.158Z,17.11
2018-03-20T00:37:41.153Z,17.07
2018-03-20T00:38:41.140Z,17.1
2018-03-20T00:39:41.180Z,17.11
2018-03-20T00:40:41.159Z,17.08
2018-03-20T00:41:41.187Z,17.09
2018-03-20T00:42:41.175Z,17.09
2018-03-20T00:43:41.171Z,17.08
2018-03-20T00:44:41.146Z,17.07
2018-03-20T00:45:41.177Z,17.09
2018-03-20T00:46:41.159Z,17.06
2018-03-20T00:47:41.156Z,17.05
2018-03-20T00:48:41.148Z,17.07
2018-03-20T00:49:41.148Z,17.05
2018-03-20T00:50:41.205Z,17.03
2018-03-20T00:51:41.189Z,17.07
2018-03-20T00:52:41.160Z,17.03
2018-03-20T00:53:41.156Z,17.02
2018-03-20T00:54:41.165Z,17.05
2018-03-20T00:55:41.189Z,17.03
2018-03-20T00:56:41.154Z,17.03
2018-03-20T00:57:41.185Z,17.04
2018-03-20T00:58:41.147Z,17.02
2018-03-20T00:59:41.161Z,17
2018-03-20T01:00:41.161Z,17.02
2018-03-20T01:01:41.242Z,17.02
2018-03-20T01:02:41.163Z,17.01
2018-03-20T01:03:41.149Z,17.02
2018-03-20T01:04:41.208Z,17.01
2018-03-20T01:05:41.141Z,16.99
2018-03-20T01:06:41.214Z,17.02
2018-03-20T01:07:41.167Z,17
2018-03-20T01:08:41.144Z,17
2018-03-20T01:09:41.158Z,17.02
2018-03-20T01:10:41.146Z,16.99
2018-03-20T01:11:41.171Z,16.98
2018-03-20T01:12:41.142Z,17.03
2018-03-20T01:13:41.147Z,16.98
2018-03-20T01:14:41.139Z,16.95
2018-03-20T01:15:41.141Z,17
2018-03-20T01:16:41.228Z,16.96
2018-03-20T01:17:41.140Z,16.98
2018-03-20T01:18:41.129Z,16.98
2018-03-20T01:19:41.145Z,16.93
2018-03-20T01:20:41.145Z,16.95
2018-03-20T01:21:41.169Z,16.98
2018-03-20T01:22:41.121Z,16.96
2018-03-20T01:23:41.134Z,16.94
2018-03-20T01:24:41.137Z,16.99
2018-03-20T01:25:41.157Z,16.96
2018-03-20T01:26:41.142Z,16.95
2018-03-20T01:27:41.154Z,16.96
2018-03-20T01:28:41.141Z,16.94
2018-03-20T01:29:41.188Z,16.92
2018-03-20T01:30:41.153Z,16.95
2018-03-20T01:31:41.150Z,16.91
2018-03-20T01:32:41.155Z,16.91
2018-03-20T01:33:41.156Z,16.95
2018-03-20T01:34:41.145Z,16.91
2018-03-20T01:35:41.157Z,16.89
2018-03-20T01:36:41.153Z,16.94
2018-03-20T01:37:41.166Z,16.9
2018-03-20T01:38:41.164Z,16.9
2018-03-20T01:39:41.249Z,16.91
2018-03-20T01:40:41.273Z,16.89
2018-03-20T01:41:41.141Z,16.9
2018-03-20T01:42:41.214Z,16.94
2018-03-20T01:43:41.144Z,16.89
2018-03-20T01:44:41.143Z,16.88
2018-03-20T01:45:41.172Z,16.91
2018-03-20T01:46:41.150Z,16.9
2018-03-20T01:47:41.208Z,16.89
2018-03-20T01:48:41.139Z,16.91
2018-03-20T01:49:41.159Z,16.89
2018-03-20T01:50:41.142Z,16.87
2018-03-20T01:51:41.154Z,16.91
2018-03-20T01:52:41.155Z,16.87
2018-03-20T01:53:41.120Z,16.84
2018-03-20T01:54:41.166Z,16.87
2018-03-20T01:55:41.135Z,16.87
2018-03-20T01:56:41.130Z,16.84
2018-03-20T01:57:41.124Z,16.87
2018-03-20T01:58:41.134Z,16.86
2018-03-20T01:59:41.121Z,16.84
2018-03-20T02:00:41.133Z,16.86
2018-03-20T02:01:41.144Z,16.82
2018-03-20T02:02:41.132Z,16.84
2018-03-20T02:03:41.125Z,16.85
2018-03-20T02:04:41.127Z,16.81
2018-03-20T02:05:41.111Z,16.81
2018-03-20T02:06:41.129Z,16.84
2018-03-20T02:07:41.134Z,16.82
2018-03-20T02:08:41.139Z,16.8
2018-03-20T02:09:41.177Z,16.82
2018-03-20T02:10:41.208Z,16.8
2018-03-20T02:11:41.152Z,16.81
2018-03-20T02:12:41.141Z,16.81
2018-03-20T02:13:41.128Z,16.82
2018-03-20T02:14:41.137Z,16.79
2018-03-20T02:15:41.131Z,16.81
2018-03-20T02:16:41.126Z,16.78
2018-03-20T02:17:41.115Z,16.79
2018-03-20T02:18:41.132Z,16.8
2018-03-20T02:19:41.143Z,16.76
2018-03-20T02:20:41.198Z,16.76
2018-03-20T02:21:41.138Z,16.78
2018-03-20T02:22:41.137Z,16.76
2018-03-20T02:23:41.102Z,16.77
2018-03-20T02:24:41.111Z,16.78
2018-03-20T02:25:41.137Z,16.77
2018-03-20T02:26:41.120Z,16.78
2018-03-20T02:27:41.133Z,16.77
2018-03-20T02:28:41.132Z,16.76
2018-03-20T02:29:41.117Z,16.77
2018-03-20T02:30:41.160Z,16.79
2018-03-20T02:31:41.164Z,16.76
2018-03-20T02:32:41.115Z,16.73
2018-03-20T02:33:40.976Z,16.76
2018-03-20T02:34:41.093Z,16.74
2018-03-20T02:35:41.106Z,16.74
2018-03-20T02:36:41.180Z,16.77
2018-03-20T02:37:41.101Z,16.75
2018-03-20T02:38:41.168Z,16.74
2018-03-20T02:39:41.115Z,16.74
2018-03-20T02:40:41.133Z,16.73
2018-03-20T02:41:41.165Z,16.74
2018-03-20T02:42:41.111Z,16.74
2018-03-20T02:43:41.109Z,16.73
2018-03-20T02:44:41.107Z,16.73
2018-03-20T02:45:41.100Z,16.75
2018-03-20T02:46:41.148Z,16.73
2018-03-20T02:47:41.104Z,16.72
2018-03-20T02:48:41.135Z,16.73
2018-03-20T02:49:41.133Z,16.71
2018-03-20T02:50:41.131Z,16.7
2018-03-20T02:51:41.129Z,16.72
2018-03-20T02:52:41.135Z,16.7
2018-03-20T02:53:41.144Z,16.71
2018-03-20T02:54:41.117Z,16.73
2018-03-20T02:55:41.133Z,16.7
2018-03-20T02:56:41.120Z,16.69
2018-03-20T02:57:41.124Z,16.7
2018-03-20T02:58:41.151Z,16.67
2018-03-20T02:59:41.105Z,16.67
2018-03-20T03:00:41.160Z,16.71
2018-03-20T03:01:41.119Z,16.65
2018-03-20T03:02:41.149Z,16.69
2018-03-20T03:03:41.097Z,16.7
2018-03-20T03:04:41.107Z,16.65
2018-03-20T03:05:41.093Z,16.67
2018-03-20T03:06:41.138Z,16.7
2018-03-20T03:07:41.134Z,16.66
2018-03-20T03:08:41.120Z,16.64
2018-03-20T03:09:41.114Z,16.65
2018-03-20T03:10:41.116Z,16.64
2018-03-20T03:11:41.115Z,16.63
2018-03-20T03:12:41.116Z,16.69
2018-03-20T03:13:41.119Z,16.62
2018-03-20T03:14:41.095Z,16.64
2018-03-20T03:15:41.120Z,16.65
2018-03-20T03:16:41.110Z,16.63
2018-03-20T03:17:41.211Z,16.61
2018-03-20T03:18:41.115Z,16.64
2018-03-20T03:19:41.162Z,16.61
2018-03-20T03:20:41.089Z,16.61
2018-03-20T03:21:41.101Z,16.64
2018-03-20T03:22:41.192Z,16.6
2018-03-20T03:23:41.091Z,16.61
2018-03-20T03:24:41.108Z,16.62
2018-03-20T03:25:41.114Z,16.62
2018-03-20T03:26:41.106Z,16.61
2018-03-20T03:27:41.095Z,16.64
2018-03-20T03:28:41.121Z,16.61
2018-03-20T03:29:41.082Z,16.6
2018-03-20T03:30:41.110Z,16.62
2018-03-20T03:31:41.127Z,16.6
2018-03-20T03:32:41.103Z,16.6
2018-03-20T03:33:41.079Z,16.62
2018-03-20T03:34:41.145Z,16.6
2018-03-20T03:35:41.104Z,16.59
2018-03-20T03:36:41.095Z,16.61
2018-03-20T03:37:41.113Z,16.59
2018-03-20T03:38:41.088Z,16.57
2018-03-20T03:39:41.088Z,16.63
2018-03-20T03:40:41.211Z,16.61
2018-03-20T03:41:41.214Z,16.58
2018-03-20T03:42:41.101Z,16.6
2018-03-20T03:43:41.120Z,16.59
2018-03-20T03:44:41.102Z,16.57
2018-03-20T03:45:41.114Z,16.58
2018-03-20T03:46:41.106Z,16.58
2018-03-20T03:47:41.086Z,16.56
2018-03-20T03:48:41.127Z,16.59
2018-03-20T03:49:41.106Z,16.56
2018-03-20T03:50:41.085Z,16.58
2018-03-20T03:51:41.105Z,16.57
2018-03-20T03:52:41.078Z,16.56
2018-03-20T03:53:41.110Z,16.56
2018-03-20T03:54:41.087Z,16.58
2018-03-20T03:55:41.097Z,16.56
2018-03-20T03:56:41.084Z,16.54
2018-03-20T03:57:41.073Z,16.55
2018-03-20T03:58:41.144Z,16.52
2018-03-20T03:59:41.081Z,16.55
2018-03-20T04:00:41.087Z,16.56
2018-03-20T04:01:41.111Z,16.54
2018-03-20T04:02:41.058Z,16.54
2018-03-20T04:03:41.116Z,16.54
2018-03-20T04:04:41.102Z,16.5
2018-03-20T04:05:41.065Z,16.5
2018-03-20T04:06:41.082Z,16.49
2018-03-20T04:07:41.090Z,16.51
2018-03-20T04:08:41.080Z,16.52
2018-03-20T04:09:41.108Z,16.56
2018-03-20T04:10:41.084Z,16.54
2018-03-20T04:11:41.096Z,16.51
2018-03-20T04:12:41.051Z,16.51
2018-03-20T04:13:41.105Z,16.52
2018-03-20T04:14:41.081Z,16.49
2018-03-20T04:15:41.110Z,16.51
2018-03-20T04:16:41.098Z,16.49
2018-03-20T04:17:41.069Z,16.49
2018-03-20T04:18:41.122Z,16.5
2018-03-20T04:19:41.084Z,16.47
2018-03-20T04:20:41.092Z,16.49
2018-03-20T04:21:41.096Z,16.5
2018-03-20T04:22:41.094Z,16.46
2018-03-20T04:23:41.361Z,16.47
2018-03-20T04:24:41.068Z,16.48
2018-03-20T04:25:41.066Z,16.45
2018-03-20T04:26:41.087Z,16.45
2018-03-20T04:27:41.144Z,16.45
2018-03-20T04:28:41.115Z,16.45
2018-03-20T04:29:41.124Z,16.44
2018-03-20T04:30:41.095Z,16.46
2018-03-20T04:31:41.082Z,16.43
2018-03-20T04:32:41.081Z,16.42
2018-03-20T04:33:41.091Z,16.46
2018-03-20T04:34:41.098Z,16.43
2018-03-20T04:35:41.070Z,16.43
2018-03-20T04:36:41.080Z,16.45
2018-03-20T04:37:41.057Z,16.41
2018-03-20T04:38:41.134Z,16.42
2018-03-20T04:39:41.081Z,16.45
2018-03-20T04:40:41.091Z,16.42
2018-03-20T04:41:41.073Z,16.41
2018-03-20T04:42:41.080Z,16.44
2018-03-20T04:43:41.194Z,16.42
2018-03-20T04:44:41.070Z,16.43
2018-03-20T04:45:41.082Z,16.43
2018-03-20T04:46:41.083Z,16.43
2018-03-20T04:47:41.124Z,16.42
2018-03-20T04:48:41.104Z,16.45
2018-03-20T04:49:41.084Z,16.44
2018-03-20T04:50:41.064Z,16.42
2018-03-20T04:51:41.070Z,16.45
2018-03-20T04:52:41.077Z,16.42
2018-03-20T04:53:41.066Z,16.4
2018-03-20T04:54:41.062Z,16.45
2018-03-20T04:55:41.093Z,16.42
2018-03-20T04:56:41.088Z,16.42
2018-03-20T04:57:41.042Z,16.45
2018-03-20T04:58:41.076Z,16.41
2018-03-20T04:59:41.058Z,16.43
2018-03-20T05:00:41.083Z,16.44
2018-03-20T05:01:41.053Z,16.45
2018-03-20T05:02:41.078Z,16.46
2018-03-20T05:03:41.082Z,16.49
2018-03-20T05:04:41.048Z,16.48
2018-03-20T05:05:41.063Z,16.5
2018-03-20T05:06:41.091Z,16.51
2018-03-20T05:07:41.088Z,16.55
2018-03-20T05:08:41.044Z,16.56
2018-03-20T05:09:41.093Z,16.57
2018-03-20T05:10:41.062Z,16.59
2018-03-20T05:11:41.072Z,16.57
2018-03-20T05:12:41.071Z,16.59
2018-03-20T05:13:41.085Z,16.59
2018-03-20T05:14:41.039Z,16.6
2018-03-20T05:15:41.059Z,16.61
2018-03-20T05:16:41.058Z,16.62
2018-03-20T05:17:41.080Z,16.64
2018-03-20T05:18:41.069Z,16.66
2018-03-20T05:19:41.105Z,16.67
2018-03-20T05:20:41.332Z,16.69
2018-03-20T05:21:41.066Z,16.69
2018-03-20T05:22:41.067Z,16.72
2018-03-20T05:23:41.049Z,16.73
2018-03-20T05:24:41.060Z,16.75
2018-03-20T05:25:41.074Z,16.74
2018-03-20T05:26:41.061Z,16.79
2018-03-20T05:27:41.069Z,16.78
2018-03-20T05:28:41.039Z,16.8
2018-03-20T05:29:41.046Z,16.82
2018-03-20T05:30:41.070Z,16.84
2018-03-20T05:31:41.092Z,16.88
2018-03-20T05:32:41.048Z,16.89
2018-03-20T05:33:41.072Z,16.88
2018-03-20T05:34:41.059Z,16.91
2018-03-20T05:35:41.034Z,16.91
2018-03-20T05:36:41.069Z,16.94
2018-03-20T05:37:41.063Z,16.96
2018-03-20T05:38:41.053Z,16.98
2018-03-20T05:39:41.067Z,16.99
2018-03-20T05:40:41.052Z,17
2018-03-20T05:41:41.151Z,17.02
2018-03-20T05:42:41.435Z,17.03
2018-03-20T05:43:41.081Z,17.05
2018-03-20T05:44:41.056Z,17.08
2018-03-20T05:45:41.056Z,17.1
2018-03-20T05:46:41.071Z,17.11
2018-03-20T05:47:41.089Z,17.15
2018-03-20T05:48:41.059Z,17.16
2018-03-20T05:49:41.056Z,17.18
2018-03-20T05:50:41.059Z,17.17
2018-03-20T05:51:41.040Z,17.19
2018-03-20T05:52:41.046Z,17.21
2018-03-20T05:53:41.068Z,17.22
2018-03-20T05:54:41.055Z,17.25
2018-03-20T05:55:41.050Z,17.25
2018-03-20T05:56:41.066Z,17.26
2018-03-20T05:57:41.107Z,17.28
2018-03-20T05:58:41.404Z,17.29
2018-03-20T05:59:41.072Z,17.32
2018-03-20T06:00:41.109Z,17.34
2018-03-20T06:01:41.055Z,17.32
2018-03-20T06:02:41.049Z,17.35
2018-03-20T06:03:41.088Z,17.37
2018-03-20T06:04:41.057Z,17.38
2018-03-20T06:05:41.039Z,17.4
2018-03-20T06:06:41.037Z,17.4
2018-03-20T06:07:41.036Z,17.43
2018-03-20T06:08:41.070Z,17.45
2018-03-20T06:09:41.056Z,17.45
2018-03-20T06:10:41.051Z,17.45
2018-03-20T06:11:41.053Z,17.48
2018-03-20T06:12:41.058Z,17.49
2018-03-20T06:13:41.077Z,17.5
2018-03-20T06:14:41.049Z,17.5
2018-03-20T06:15:41.040Z,17.53
2018-03-20T06:16:41.049Z,17.54
2018-03-20T06:17:41.073Z,17.56
2018-03-20T06:18:41.025Z,17.54
2018-03-20T06:19:41.053Z,17.55
2018-03-20T06:20:41.041Z,17.56
2018-03-20T06:21:41.099Z,17.58
2018-03-20T06:22:41.036Z,17.59
2018-03-20T06:23:41.065Z,17.62
2018-03-20T06:24:41.049Z,17.62
2018-03-20T06:25:41.036Z,17.62
2018-03-20T06:26:41.109Z,17.64
2018-03-20T06:27:41.042Z,17.63
2018-03-20T06:28:41.067Z,17.64
2018-03-20T06:29:41.028Z,17.67
2018-03-20T06:30:41.047Z,17.66
2018-03-20T06:31:41.049Z,17.67
2018-03-20T06:32:41.028Z,17.69
2018-03-20T06:33:41.074Z,17.68
2018-03-20T06:34:41.048Z,17.7
2018-03-20T06:35:41.082Z,17.73
2018-03-20T06:36:41.033Z,17.69
2018-03-20T06:37:41.051Z,17.74
2018-03-20T06:38:41.052Z,17.73
2018-03-20T06:39:41.050Z,17.74
2018-03-20T06:40:41.044Z,17.74
2018-03-20T06:41:41.052Z,17.75
2018-03-20T06:42:41.038Z,17.74
2018-03-20T06:43:41.077Z,17.76
2018-03-20T06:44:41.059Z,17.76
2018-03-20T06:45:41.047Z,17.78
2018-03-20T06:46:41.055Z,17.76
2018-03-20T06:47:41.057Z,17.81
2018-03-20T06:48:41.044Z,17.8
2018-03-20T06:49:41.036Z,17.8
2018-03-20T06:50:41.056Z,17.8
2018-03-20T06:51:41.053Z,17.82
2018-03-20T06:52:41.033Z,17.81
2018-03-20T06:53:41.046Z,17.82
2018-03-20T06:54:41.032Z,17.82
2018-03-20T06:55:41.040Z,17.84
2018-03-20T06:56:41.032Z,17.84
2018-03-20T06:57:41.033Z,17.85
2018-03-20T06:58:41.057Z,17.85
2018-03-20T06:59:41.011Z,17.85
2018-03-20T07:00:41.025Z,17.87
2018-03-20T07:01:41.037Z,17.88
2018-03-20T07:02:41.015Z,17.88
2018-03-20T07:03:41.056Z,17.88
2018-03-20T07:04:41.036Z,17.89
2018-03-20T07:05:41.014Z,17.9
2018-03-20T07:06:41.013Z,17.91
2018-03-20T07:07:41.030Z,17.92
2018-03-20T07:08:41.050Z,17.93
2018-03-20T07:09:41.043Z,17.89
2018-03-20T07:10:41.017Z,17.91
2018-03-20T07:11:41.024Z,17.91
2018-03-20T07:12:41.059Z,17.88
2018-03-20T07:13:41.074Z,17.93
2018-03-20T07:14:41.064Z,17.94
2018-03-20T07:15:41.023Z,17.95
2018-03-20T07:16:41.035Z,17.96
2018-03-20T07:17:41.020Z,17.96
2018-03-20T07:18:41.347Z,17.96
2018-03-20T07:19:41.045Z,17.97
2018-03-20T07:20:41.022Z,17.97
2018-03-20T07:21:41.022Z,17.99
2018-03-20T07:22:41.032Z,17.99
2018-03-20T07:23:41.081Z,18.02
2018-03-20T07:24:41.031Z,18.03
2018-03-20T07:25:41.024Z,18.03
2018-03-20T07:26:41.036Z,18.05
2018-03-20T07:27:41.025Z,18.05
2018-03-20T07:28:41.012Z,18.05
2018-03-20T07:29:41.038Z,18.06
2018-03-20T07:30:41.041Z,18.07
2018-03-20T07:31:41.037Z,18.08
2018-03-20T07:32:41.019Z,18.08
2018-03-20T07:33:41.028Z,18.09
2018-03-20T07:34:41.022Z,18.11
2018-03-20T07:35:41.048Z,18.09
2018-03-20T07:36:41.024Z,18.08
2018-03-20T07:37:41.033Z,18.08
2018-03-20T07:38:41.016Z,18.08
2018-03-20T07:39:41.026Z,18.07
2018-03-20T07:40:41.000Z,18.1
2018-03-20T07:41:41.009Z,18.08
2018-03-20T07:42:41.175Z,18.08
2018-03-20T07:43:41.117Z,18.09
2018-03-20T07:44:40.990Z,18.09
2018-03-20T07:45:41.023Z,18.08
2018-03-20T07:46:41.027Z,18.08
2018-03-20T07:47:41.029Z,18.09
2018-03-20T07:48:41.020Z,18.07
2018-03-20T07:49:41.022Z,18.08
2018-03-20T07:50:41.038Z,18.1
2018-03-20T07:51:41.024Z,18.08
2018-03-20T07:52:41.020Z,18.08
2018-03-20T07:53:41.027Z,18.08
2018-03-20T07:54:41.000Z,18.08
2018-03-20T07:55:41.080Z,18.1
2018-03-20T07:56:40.998Z,18.11
2018-03-20T07:57:41.068Z,18.09
2018-03-20T07:58:41.019Z,18.1
2018-03-20T07:59:40.988Z,18.09
2018-03-20T08:00:41.015Z,18.12
2018-03-20T08:01:41.355Z,18.09
2018-03-20T08:02:40.999Z,18.11
2018-03-20T08:03:40.991Z,18.11
2018-03-20T08:04:41.000Z,18.1
2018-03-20T08:05:41.047Z,18.11
2018-03-20T08:06:41.012Z,18.13
2018-03-20T08:07:41.006Z,18.11
2018-03-20T08:08:41.019Z,18.15
2018-03-20T08:09:41.014Z,18.13
2018-03-20T08:10:41.089Z,18.14
2018-03-20T08:11:41.012Z,18.17
2018-03-20T08:12:41.004Z,18.15
2018-03-20T08:13:41.184Z,18.15
2018-03-20T08:14:41.011Z,18.17
2018-03-20T08:15:41.056Z,18.15
2018-03-20T08:16:41.020Z,18.18
2018-03-20T08:17:40.983Z,18.17
2018-03-20T08:18:41.018Z,18.19
2018-03-20T08:19:41.010Z,18.2
2018-03-20T08:20:40.995Z,18.19
2018-03-20T08:21:41.005Z,18.19
2018-03-20T08:22:41.046Z,18.21
2018-03-20T08:23:40.976Z,18.21
2018-03-20T08:24:41.023Z,18.21
2018-03-20T08:25:40.989Z,18.22
2018-03-20T08:26:40.999Z,18.21
2018-03-20T08:27:40.997Z,18.22
2018-03-20T08:28:41.000Z,18.21
2018-03-20T08:29:41.038Z,18.24
2018-03-20T08:30:40.988Z,18.22
2018-03-20T08:31:41.004Z,18.22
2018-03-20T08:32:40.987Z,18.23
2018-03-20T08:33:41.001Z,18.24
2018-03-20T08:34:41.011Z,18.26
2018-03-20T08:35:40.991Z,18.26
2018-03-20T08:36:41.296Z,18.26
2018-03-20T08:37:41.012Z,18.26
2018-03-20T08:38:41.009Z,18.28
2018-03-20T08:39:41.021Z,18.26
2018-03-20T08:40:41.035Z,18.25
2018-03-20T08:41:40.972Z,18.28
2018-03-20T08:42:41.011Z,18.27
2018-03-20T08:43:41.001Z,18.27
2018-03-20T08:44:40.987Z,18.29
2018-03-20T08:45:40.995Z,18.28
2018-03-20T08:46:41.002Z,18.32
2018-03-20T08:47:40.969Z,18.28
2018-03-20T08:48:40.986Z,18.29
2018-03-20T08:49:41.011Z,18.29
2018-03-20T08:50:40.985Z,18.32
2018-03-20T08:51:40.975Z,18.32
2018-03-20T08:52:41.071Z,18.32
2018-03-20T08:53:40.977Z,18.29
2018-03-20T08:54:41.031Z,18.32
2018-03-20T08:55:41.018Z,18.32
2018-03-20T08:56:40.990Z,18.32
2018-03-20T08:57:40.979Z,18.33
2018-03-20T08:58:41.074Z,18.33
2018-03-20T08:59:41.113Z,18.33
2018-03-20T09:00:41.136Z,18.32
2018-03-20T09:01:40.993Z,18.33
2018-03-20T09:02:41.023Z,18.34
2018-03-20T09:03:41.055Z,18.34
2018-03-20T09:04:41.087Z,18.35
2018-03-20T09:05:40.965Z,18.33
2018-03-20T09:06:41.012Z,18.35
2018-03-20T09:07:40.996Z,18.34
2018-03-20T09:08:41.046Z,18.35
2018-03-20T09:09:41.058Z,18.36
2018-03-20T09:10:41.087Z,18.34
2018-03-20T09:11:40.997Z,18.36
2018-03-20T09:12:41.024Z,18.37
2018-03-20T09:13:40.998Z,18.36
2018-03-20T09:14:41.058Z,18.36
2018-03-20T09:15:41.061Z,18.37
2018-03-20T09:16:40.995Z,18.37
2018-03-20T09:17:40.965Z,18.37
2018-03-20T09:18:40.991Z,18.36
2018-03-20T09:19:40.979Z,18.38
2018-03-20T09:20:41.003Z,18.39
2018-03-20T09:21:41.190Z,18.38
2018-03-20T09:22:40.984Z,18.38
2018-03-20T09:23:40.995Z,18.37
2018-03-20T09:24:40.998Z,18.39
2018-03-20T09:25:40.986Z,18.37
2018-03-20T09:26:40.992Z,18.4
2018-03-20T09:27:40.981Z,18.38
2018-03-20T09:28:41.011Z,18.41
2018-03-20T09:29:40.999Z,18.4
2018-03-20T09:30:41.008Z,18.41
2018-03-20T09:31:41.006Z,18.43
2018-03-20T09:32:40.989Z,18.41
2018-03-20T09:33:40.975Z,18.39
2018-03-20T09:34:40.972Z,18.41
2018-03-20T09:35:40.976Z,18.41
2018-03-20T09:36:41.010Z,18.42
2018-03-20T09:37:40.996Z,18.42
2018-03-20T09:38:40.981Z,18.43
2018-03-20T09:39:40.994Z,18.44
2018-03-20T09:40:40.979Z,18.4
2018-03-20T09:41:41.000Z,18.47
2018-03-20T09:42:40.986Z,18.43
2018-03-20T09:43:41.092Z,18.44
2018-03-20T09:44:41.097Z,18.44
2018-03-20T09:45:40.982Z,18.43
2018-03-20T09:46:40.989Z,18.44
2018-03-20T09:47:41.158Z,18.46
2018-03-20T09:48:40.971Z,18.44
2018-03-20T09:49:40.950Z,18.44
2018-03-20T09:50:40.997Z,18.46
2018-03-20T09:51:40.990Z,18.48
2018-03-20T09:52:40.974Z,18.47
2018-03-20T09:53:40.960Z,18.46
2018-03-20T09:54:40.961Z,18.48
2018-03-20T09:55:41.007Z,18.46
2018-03-20T09:56:41.020Z,18.48
2018-03-20T09:57:40.994Z,18.49
2018-03-20T09:58:40.986Z,18.48
2018-03-20T09:59:40.958Z,18.48
2018-03-20T10:00:40.986Z,18.48
2018-03-20T10:01:40.987Z,18.48
2018-03-20T10:02:40.963Z,18.48
2018-03-20T10:03:40.985Z,18.49
2018-03-20T10:04:40.973Z,18.48
2018-03-20T10:05:40.971Z,18.48
2018-03-20T10:06:41.119Z,18.49
2018-03-20T10:07:40.971Z,18.49
2018-03-20T10:08:40.961Z,18.49
2018-03-20T10:09:40.971Z,18.46
2018-03-20T10:10:40.971Z,18.49
2018-03-20T10:11:40.992Z,18.48
2018-03-20T10:12:40.978Z,18.44
2018-03-20T10:13:40.957Z,18.48
2018-03-20T10:14:40.972Z,18.49
2018-03-20T10:15:40.932Z,18.5
2018-03-20T10:16:40.951Z,18.51
2018-03-20T10:17:40.999Z,18.53
2018-03-20T10:18:40.967Z,18.52
2018-03-20T10:19:40.988Z,18.54
2018-03-20T10:20:40.979Z,18.54
2018-03-20T10:21:40.979Z,18.53
2018-03-20T10:22:40.974Z,18.55
2018-03-20T10:23:40.967Z,18.56
2018-03-20T10:24:40.960Z,18.57
2018-03-20T10:25:41.003Z,18.56
2018-03-20T10:26:40.945Z,18.62
2018-03-20T10:27:41.132Z,18.61
2018-03-20T10:28:40.952Z,18.57
2018-03-20T10:29:40.974Z,18.63
2018-03-20T10:30:40.978Z,18.62
2018-03-20T10:31:40.985Z,18.62
2018-03-20T10:32:40.989Z,18.64
2018-03-20T10:33:40.974Z,18.63
2018-03-20T10:34:40.973Z,18.63
2018-03-20T10:35:40.937Z,18.64
2018-03-20T10:36:40.991Z,18.63
2018-03-20T10:37:40.962Z,18.63
2018-03-20T10:38:40.963Z,18.64
2018-03-20T10:39:40.959Z,18.62
2018-03-20T10:40:40.966Z,18.62
2018-03-20T10:41:40.974Z,18.63
2018-03-20T10:42:40.956Z,18.62
2018-03-20T10:43:40.978Z,18.63
2018-03-20T10:44:40.950Z,18.64
2018-03-20T10:45:40.955Z,18.62
2018-03-20T10:46:40.969Z,18.64
2018-03-20T10:47:40.946Z,18.61
2018-03-20T10:48:40.997Z,18.63
2018-03-20T10:49:40.972Z,18.63
2018-03-20T10:50:40.951Z,18.63
2018-03-20T10:51:40.966Z,18.62
2018-03-20T10:52:40.977Z,18.58
2018-03-20T10:53:40.986Z,18.59
2018-03-20T10:54:40.959Z,18.61
2018-03-20T10:55:40.939Z,18.59
2018-03-20T10:56:40.947Z,18.59
2018-03-20T10:57:40.968Z,18.62
2018-03-20T10:58:40.955Z,18.61
2018-03-20T10:59:40.994Z,18.61
2018-03-20T11:00:40.952Z,18.63
2018-03-20T11:01:40.959Z,18.63
2018-03-20T11:02:40.962Z,18.62
2018-03-20T11:03:40.981Z,18.64
2018-03-20T11:04:40.987Z,18.63
2018-03-20T11:05:40.929Z,18.62
2018-03-20T11:06:40.954Z,18.62
2018-03-20T11:07:40.941Z,18.62
2018-03-20T11:08:40.975Z,18.64
2018-03-20T11:09:40.929Z,18.63
2018-03-20T11:10:40.964Z,18.63
2018-03-20T11:11:40.967Z,18.61
2018-03-20T11:12:40.951Z,18.63
2018-03-20T11:13:40.972Z,18.62
2018-03-20T11:14:40.993Z,18.63
2018-03-20T11:15:40.958Z,18.66
2018-03-20T11:16:40.954Z,18.63
2018-03-20T11:17:40.974Z,18.63
2018-03-20T11:18:40.959Z,18.63
2018-03-20T11:19:40.950Z,18.65
2018-03-20T11:20:40.929Z,18.64
2018-03-20T11:21:40.967Z,18.64
2018-03-20T11:22:40.924Z,18.64
2018-03-20T11:23:40.994Z,18.62
2018-03-20T11:24:41.278Z,18.65
2018-03-20T11:25:40.954Z,18.64
2018-03-20T11:26:40.936Z,18.67
2018-03-20T11:27:40.968Z,18.65
2018-03-20T11:28:40.989Z,18.66
2018-03-20T11:29:40.981Z,18.64
2018-03-20T11:30:40.958Z,18.66
2018-03-20T11:31:40.919Z,18.68
2018-03-20T11:32:40.923Z,18.67
2018-03-20T11:33:40.941Z,18.67
2018-03-20T11:34:40.961Z,18.65
2018-03-20T11:35:40.948Z,18.66
2018-03-20T11:36:40.953Z,18.69
2018-03-20T11:37:40.946Z,18.68
2018-03-20T11:38:40.939Z,18.66
2018-03-20T11:39:40.979Z,18.67
2018-03-20T11:40:40.963Z,18.66
2018-03-20T11:41:40.943Z,18.69
2018-03-20T11:42:40.955Z,18.67
2018-03-20T11:43:40.965Z,18.69
2018-03-20T11:44:41.033Z,18.68
2018-03-20T11:45:41.100Z,18.69
2018-03-20T11:46:40.936Z,18.68
2018-03-20T11:47:40.949Z,18.7
2018-03-20T11:48:40.974Z,18.7
2018-03-20T11:49:40.973Z,18.69
2018-03-20T11:50:40.941Z,18.7
2018-03-20T11:51:40.983Z,18.69
2018-03-20T11:52:40.950Z,18.7
2018-03-20T11:53:40.954Z,18.7
2018-03-20T11:54:40.952Z,18.7
2018-03-20T11:55:40.975Z,18.69
2018-03-20T11:56:40.962Z,18.68
2018-03-20T11:57:41.015Z,18.69
2018-03-20T11:58:40.968Z,18.69
2018-03-20T11:59:40.954Z,18.69
2018-03-20T12:00:40.954Z,18.71
2018-03-20T12:01:40.965Z,18.69
2018-03-20T12:02:40.937Z,18.69
2018-03-20T12:03:40.956Z,18.7
2018-03-20T12:04:40.966Z,18.7
2018-03-20T12:05:40.926Z,18.69
2018-03-20T12:06:40.962Z,18.71
2018-03-20T12:07:40.931Z,18.69
2018-03-20T12:08:40.947Z,18.7
2018-03-20T12:09:40.947Z,18.7
2018-03-20T12:10:40.950Z,18.69
2018-03-20T12:11:40.935Z,18.72
2018-03-20T12:12:40.944Z,18.72
2018-03-20T12:13:40.939Z,18.73
2018-03-20T12:14:40.946Z,18.66
2018-03-20T12:15:40.933Z,18.64
2018-03-20T12:16:40.925Z,18.67
2018-03-20T12:17:40.930Z,18.66
2018-03-20T12:18:40.943Z,18.66
2018-03-20T12:19:40.913Z,18.66
2018-03-20T12:20:40.940Z,18.66
2018-03-20T12:21:40.922Z,18.65
2018-03-20T12:22:40.923Z,18.65
2018-03-20T12:23:40.927Z,18.65
2018-03-20T12:24:40.923Z,18.65
2018-03-20T12:25:40.922Z,18.64
2018-03-20T12:26:40.914Z,18.65
2018-03-20T12:27:40.931Z,18.64
2018-03-20T12:28:40.932Z,18.66
2018-03-20T12:29:40.950Z,18.67
2018-03-20T12:30:40.923Z,18.69
2018-03-20T12:31:40.917Z,18.68
2018-03-20T12:32:40.895Z,18.71
2018-03-20T12:33:40.908Z,18.69
2018-03-20T12:34:40.943Z,18.69
2018-03-20T12:35:40.915Z,18.69
2018-03-20T12:36:40.914Z,18.67
2018-03-20T12:37:41.034Z,18.69
2018-03-20T12:38:40.945Z,18.69
2018-03-20T12:39:40.924Z,18.69
2018-03-20T12:40:40.926Z,18.69
2018-03-20T12:41:40.919Z,18.71
2018-03-20T12:42:40.942Z,18.7
2018-03-20T12:43:40.925Z,18.68
2018-03-20T12:44:40.981Z,18.73
2018-03-20T12:45:40.928Z,18.71
2018-03-20T12:46:41.438Z,18.69
2018-03-20T12:47:40.952Z,18.72
2018-03-20T12:48:40.930Z,18.7
2018-03-20T12:49:40.940Z,18.72
2018-03-20T12:50:40.946Z,18.71
2018-03-20T12:51:40.956Z,18.72
2018-03-20T12:52:40.924Z,18.71
2018-03-20T12:53:40.883Z,18.71
2018-03-20T12:54:40.933Z,18.7
2018-03-20T12:55:40.930Z,18.72